WBGG

Kuching International Airport

Kuching, Malaysia
TAF WBGG 171700Z 1718/1818 VRB03KT 9999 SCT020 TEMPO 1718/1722 5000 RA SCT016 TEMPO 1807/1811 02010KT 3000 TSRA FEW015CB
Issued Valid From Valid To
Jan-17 @ 17:00 UTC
(6 hours ago)
Jan-17 @ 18:00 UTC
(5 hours ago)
Jan-18 @ 18:00 UTC
(in 19 hours)
Jan-17 @ 18:00 to Jan-18 @ 18:00
TAF WBGG 171700Z 1718/1818 VRB03KT 9999 SCT020
Wind Visibility Clouds
Variable at 3 knots 10,000+ meters
  • Scattered at 2,000' AGL
Expired Click to View Jan-17 @ 18:00 to Jan-17 @ 22:00
TEMPO 1718/1722 5000 RA SCT016
Visibility Clouds Conditions
5,005 meters
  • Scattered at 1,600' AGL
  • Rain
Temporary Jan-18 @ 07:00 to Jan-18 @ 11:00
TEMPO 1807/1811 02010KT 3000 TSRA FEW015CB
Wind Visibility Clouds Conditions
20° at 10 knots 2,993 meters
  • Few at 1,500' AGL
  • Thunderstorm
  • Rain
TAF WBGG 171700Z 1718/1818 VRB03KT 9999 SCT020 TEMPO 1718/1722 5000 RA SCT016 TEMPO 1807/1811 02010KT 3000 TSRA FEW015CB
Issued Jan-17 @ 17:00 UTC
(6 hours ago)
Valid From Jan-17 @ 18:00 UTC
(5 hours ago)
Valid To Jan-18 @ 18:00 UTC
(in 19 hours)
Jan-17 @ 18:00 - Jan-18 @ 18:00
Wind Visibility
Variable at 3 knots 10,000+ meters
Clouds
  • Scattered at 2,000' AGL
Jan-17 @ 18:00 - Jan-17 @ 22:00
Clouds
  • Scattered at 1,600' AGL
Conditions
  • Rain
Temporary Jan-18 @ 07:00 - Jan-18 @ 11:00
Wind Visibility
20° at 10 knots 2,993 meters
Clouds
  • Few at 1,500' AGL
Conditions
  • Thunderstorm
  • Rain